Terminal Aerodrome Forecast
Issued by NWS

Home | Current Version | Previous Version | Text Only | Print | Product List | Glossary On
Versions: 1 2 3 4 5 6 7 8 9 10 11 12
000
FTUS41 KLWX 291700
TAFMTN
TAF
KMTN 291735Z 2918/3018 25006KT P6SM OVC045
     FM300100 00000KT P6SM SCT200
     FM301700 20006KT P6SM SCT250=

USA.gov is the U.S. government's official web portal to all federal, state and local government web resources and services.